createdAt,value
2023-09-18T00:00:41.576Z,50.6
2023-09-18T00:02:43.737Z,56.2
2023-09-18T00:04:45.744Z,49.6
2023-09-18T00:06:50.944Z,59
2023-09-18T00:08:53.272Z,61.1
2023-09-18T00:10:55.150Z,67.5
2023-09-18T00:12:57.169Z,61.7
2023-09-18T00:17:01.559Z,51.8
2023-09-18T00:19:03.363Z,56.4
2023-09-18T00:21:08.576Z,56.4
2023-09-18T00:23:10.709Z,50.7
2023-09-18T00:27:14.810Z,52.7
2023-09-18T00:29:16.914Z,51.8
2023-09-18T00:31:18.952Z,48.4
2023-09-18T00:33:21.352Z,38.6
2023-09-18T00:35:26.260Z,63
2023-09-18T00:39:30.357Z,54.3
2023-09-18T00:41:59.008Z,52.7
2023-09-18T00:44:01.102Z,54.4
2023-09-18T00:46:03.220Z,48.9
2023-09-18T00:48:08.377Z,59.2
2023-09-18T00:50:10.491Z,45.8
2023-09-18T00:52:12.521Z,51.5
2023-09-18T00:54:14.594Z,34.7
2023-09-18T00:56:16.710Z,37.3
2023-09-18T00:58:18.727Z,37
2023-09-18T01:00:20.787Z,33.5
2023-09-18T01:02:26.156Z,37.8
2023-09-18T01:04:28.100Z,45
2023-09-18T01:06:30.159Z,38.4
2023-09-18T01:08:32.290Z,41.2
2023-09-18T01:10:34.291Z,35.5
2023-09-18T01:12:36.358Z,40.4
2023-09-18T01:14:38.456Z,54.1
2023-09-18T01:16:43.763Z,45.7
2023-09-18T01:18:45.719Z,32.3
2023-09-18T01:20:47.785Z,41.4
2023-09-18T01:22:49.846Z,41.8
2023-09-18T01:24:51.935Z,36
2023-09-18T01:28:56.143Z,38.2
2023-09-18T01:33:03.383Z,47.1
2023-09-18T01:35:05.508Z,41.2
2023-09-18T01:40:12.177Z,51.3
2023-09-18T01:42:14.255Z,44.3
2023-09-18T01:44:19.497Z,55
2023-09-18T01:46:21.582Z,41.3
2023-09-18T01:48:23.649Z,43.7
2023-09-18T01:50:25.753Z,37.2
2023-09-18T01:52:27.777Z,35.7
2023-09-18T01:54:29.853Z,34.7
2023-09-18T01:56:31.929Z,42.7
2023-09-18T02:00:39.212Z,54.6
2023-09-18T02:02:47.584Z,46.5
2023-09-18T02:08:47.563Z,41.5
2023-09-18T02:10:49.570Z,46.5
2023-09-18T02:12:54.774Z,49.3
2023-09-18T02:14:56.837Z,45
2023-09-18T02:16:58.981Z,48.9
2023-09-18T02:19:00.970Z,45.3
2023-09-18T02:21:03.091Z,42.3
2023-09-18T02:23:05.130Z,45.1
2023-09-18T02:25:07.193Z,41.6
2023-09-18T02:27:12.403Z,44.8
2023-09-18T02:31:16.542Z,46.9
2023-09-18T02:32:19.238Z,50.2
2023-09-18T02:34:21.223Z,47.7
2023-09-18T02:48:40.392Z,41.5
2023-09-18T02:50:42.522Z,49.6
2023-09-18T02:52:44.544Z,48.7
2023-09-18T02:56:51.820Z,38.3
2023-09-18T02:58:54.280Z,42.2
2023-09-18T03:00:55.964Z,39.4
2023-09-18T03:02:58.208Z,39.2
2023-09-18T03:05:00.289Z,54.2
2023-09-18T03:07:02.214Z,39.1
2023-09-18T03:09:07.411Z,45.8
2023-09-18T03:11:09.526Z,46.9
2023-09-18T03:13:11.573Z,44.1
2023-09-18T03:15:13.626Z,36.6
2023-09-18T03:17:15.751Z,43.4
2023-09-18T03:19:17.776Z,50.1
2023-09-18T03:21:19.872Z,39.1
2023-09-18T03:25:27.146Z,50.8
2023-09-18T03:30:33.893Z,46.8
2023-09-18T03:32:36.016Z,44.1
2023-09-18T03:36:43.260Z,41.5
2023-09-18T03:38:45.312Z,44.6
2023-09-18T03:40:47.385Z,42.7
2023-09-18T03:42:49.449Z,44.8
2023-09-18T03:44:51.539Z,41.7
2023-09-18T03:46:53.604Z,44.6
2023-09-18T03:48:56.131Z,45.3
2023-09-18T03:51:00.935Z,44.9
2023-09-18T03:53:03.037Z,54.8
2023-09-18T03:55:05.051Z,45.5
2023-09-18T04:01:11.288Z,47.6
2023-09-18T04:05:18.589Z,49.8
2023-09-18T04:07:20.644Z,46.2
2023-09-18T04:11:24.802Z,44.5
2023-09-18T04:13:26.836Z,40.1
2023-09-18T04:15:28.898Z,39.8
2023-09-18T04:19:36.191Z,33.9
2023-09-18T04:21:38.273Z,37.6
2023-09-18T04:26:09.013Z,43.6
2023-09-18T04:28:11.066Z,37.8
2023-09-18T04:30:13.150Z,39.8
2023-09-18T04:36:22.512Z,34.7
2023-09-18T04:40:26.659Z,34.1
2023-09-18T04:46:36.043Z,35.8
2023-09-18T04:48:38.116Z,39.6
2023-09-18T04:50:40.251Z,41.9
2023-09-18T04:52:42.256Z,34.1
2023-09-18T04:54:44.322Z,33
2023-09-18T04:58:48.460Z,29.9
2023-09-18T05:00:53.709Z,39.2
2023-09-18T05:02:55.932Z,37.5
2023-09-18T05:04:58.010Z,31.8
2023-09-18T05:11:04.095Z,31.5
2023-09-18T05:15:11.347Z,37.2
2023-09-18T05:17:13.488Z,32.8
2023-09-18T05:19:15.502Z,30.2
2023-09-18T05:20:18.677Z,33
2023-09-18T05:28:29.560Z,36.7
2023-09-18T05:32:33.794Z,22.7
2023-09-18T05:40:42.022Z,22.1
2023-09-18T05:42:47.224Z,19.8
2023-09-18T05:44:49.295Z,25.2
2023-09-18T05:46:51.375Z,23.8
2023-09-18T05:48:53.666Z,23
2023-09-18T05:50:55.576Z,22
2023-09-18T05:52:57.587Z,26.1
2023-09-18T05:55:00.025Z,21.6
2023-09-18T05:59:07.004Z,18.2
2023-09-18T06:01:09.113Z,16.9
2023-09-18T06:03:11.280Z,16.4
2023-09-18T06:05:13.327Z,17.3
2023-09-18T06:09:17.320Z,18
2023-09-18T06:11:22.570Z,14.7
2023-09-18T06:13:24.608Z,20.9
2023-09-18T06:15:26.681Z,15.9
2023-09-18T06:16:29.317Z,19
2023-09-18T06:18:32.635Z,16.5
2023-09-18T06:22:35.515Z,14.4
2023-09-18T06:24:40.747Z,27.6
2023-09-18T06:36:53.158Z,22.7
2023-09-18T06:38:58.397Z,21.7
2023-09-18T06:49:08.739Z,17.1
2023-09-18T07:12:40.783Z,16.2
2023-09-18T07:14:42.933Z,14.1
2023-09-18T07:16:44.961Z,17
2023-09-18T07:20:52.320Z,15.5
2023-09-18T07:22:54.329Z,15.5
2023-09-18T07:26:58.462Z,13.2
2023-09-18T07:29:02.602Z,32.2
2023-09-18T07:33:04.708Z,23.1
2023-09-18T07:35:09.960Z,15.1
2023-09-18T07:41:16.100Z,13.8
2023-09-18T07:43:18.144Z,16.4
2023-09-18T07:45:20.215Z,11.3
2023-09-18T07:55:33.694Z,7.1
2023-09-18T07:59:37.874Z,13.5
2023-09-18T08:01:39.903Z,10.7
2023-09-18T08:03:45.186Z,10.2
2023-09-18T08:07:49.265Z,9
2023-09-18T08:10:17.833Z,9.1
2023-09-18T08:12:19.897Z,10.8
2023-09-18T08:14:22.009Z,8
2023-09-18T08:16:27.209Z,16.9
2023-09-18T08:20:31.346Z,10.3
2023-09-18T08:24:35.412Z,12.1
2023-09-18T08:32:46.901Z,6.8
2023-09-18T08:42:58.628Z,6.6
2023-09-18T08:45:03.918Z,6.5
2023-09-18T08:47:05.905Z,7.1
2023-09-18T08:49:07.952Z,7.8
2023-09-18T08:51:10.023Z,6.7
2023-09-18T08:53:12.114Z,5.6
2023-09-18T08:55:14.136Z,8.2
2023-09-18T08:57:16.189Z,7.6
2023-09-18T08:59:21.503Z,6.2
2023-09-18T09:01:23.524Z,5.7
2023-09-18T09:03:25.643Z,6.6
2023-09-18T09:04:28.178Z,4.6
2023-09-18T09:06:30.177Z,4.2
2023-09-18T09:08:32.256Z,4.1
2023-09-18T09:10:34.297Z,5.4
2023-09-18T09:12:39.512Z,6.9
2023-09-18T09:14:41.651Z,6.6
2023-09-18T09:16:43.612Z,7.3
2023-09-18T09:18:45.669Z,7.5
2023-09-18T09:20:47.751Z,4.1
2023-09-18T09:22:49.777Z,4.6
2023-09-18T09:24:51.836Z,7.8
2023-09-18T09:28:59.166Z,3.5
2023-09-18T09:31:01.196Z,14.4
2023-09-18T09:41:14.620Z,2.9
2023-09-18T09:45:18.714Z,5.4
2023-09-18T09:55:32.135Z,3.1
2023-09-18T09:59:36.298Z,6.8
2023-09-18T10:00:38.884Z,3.1
2023-09-18T10:02:41.032Z,4.9
2023-09-18T10:04:42.970Z,1.6
2023-09-18T10:06:45.073Z,9.2
2023-09-18T10:08:50.293Z,5.3
2023-09-18T10:16:58.503Z,3.1
2023-09-18T10:19:00.509Z,2.7
2023-09-18T10:23:07.765Z,4.3
2023-09-18T10:29:13.948Z,4.4
2023-09-18T10:31:15.993Z,5.7
2023-09-18T10:35:20.121Z,2
2023-09-18T10:39:27.694Z,2.9
2023-09-18T10:41:29.721Z,8.3
2023-09-18T10:43:31.762Z,4.3
2023-09-18T10:45:33.826Z,2.4
2023-09-18T10:47:35.948Z,1.3
2023-09-18T10:51:43.126Z,3.1
2023-09-18T10:53:45.225Z,2.6
2023-09-18T11:25:24.814Z,3.2
2023-09-18T11:29:28.907Z,9.8
2023-09-18T11:31:30.964Z,7.5
2023-09-18T11:33:36.185Z,8.3
2023-09-18T11:37:40.237Z,6.5
2023-09-18T11:41:44.371Z,9.2
2023-09-18T11:47:53.688Z,4.5
2023-09-18T12:12:47.891Z,4.8
2023-09-18T12:14:53.130Z,4
2023-09-18T12:16:55.138Z,3.3
2023-09-18T12:18:57.175Z,10.3
2023-09-18T12:20:59.246Z,8.1
2023-09-18T12:23:01.257Z,7.9
2023-09-18T12:33:14.725Z,2
2023-09-18T12:35:16.814Z,4.5
2023-09-18T12:37:18.723Z,3
2023-09-18T12:41:22.852Z,5.6
2023-09-18T12:43:28.027Z,16.7
2023-09-18T12:45:30.073Z,6.2
2023-09-18T12:47:32.177Z,11.8
2023-09-18T12:48:34.888Z,12.1
2023-09-18T12:50:36.836Z,6.2
2023-09-18T12:52:38.827Z,6.4
2023-09-18T12:54:40.856Z,3.4
2023-09-18T12:59:03.420Z,6.7
2023-09-18T13:02:52.266Z,12.5
2023-09-18T13:04:54.259Z,4.7
2023-09-18T13:08:58.409Z,9
2023-09-18T13:11:03.542Z,3.3
2023-09-18T13:13:05.584Z,8
2023-09-18T13:15:07.600Z,4.5
2023-09-18T13:17:09.652Z,9.2
2023-09-18T13:19:11.691Z,9.2
2023-09-18T13:21:13.722Z,13.9
2023-09-18T13:23:22.029Z,3.8
2023-09-18T13:25:20.981Z,4.8
2023-09-18T13:27:23.004Z,4.8
2023-09-18T13:29:25.114Z,4.3
2023-09-18T13:31:27.076Z,10.1
2023-09-18T13:33:29.183Z,6.8
2023-09-18T13:35:31.161Z,1.8
2023-09-18T13:37:33.184Z,3.2
2023-09-18T13:44:45.036Z,3.6
2023-09-18T13:46:47.093Z,2.9
2023-09-18T13:50:51.126Z,3.6
2023-09-18T13:52:56.321Z,2.8
2023-09-18T13:57:00.394Z,2.5
2023-09-18T13:59:02.382Z,2.4
2023-09-18T14:01:04.394Z,5
2023-09-18T14:03:06.483Z,15.9
2023-09-18T14:05:08.452Z,3.1
2023-09-18T14:07:13.604Z,4.8
2023-09-18T14:09:15.616Z,2.3
2023-09-18T14:11:17.637Z,8.4
2023-09-18T14:13:19.650Z,2.3
2023-09-18T14:15:21.631Z,8
2023-09-18T14:17:23.650Z,2.9
2023-09-18T14:19:25.644Z,6.1
2023-09-18T14:21:30.819Z,9.6
2023-09-18T14:23:32.912Z,4.1
2023-09-18T14:25:34.799Z,1.8
2023-09-18T14:27:36.973Z,4.9
2023-09-18T14:31:42.388Z,1.8
2023-09-18T14:33:44.385Z,3.3
2023-09-18T14:35:49.565Z,1.7
2023-09-18T14:37:51.530Z,6.1
2023-09-18T14:42:58.134Z,4.3
2023-09-18T14:47:02.171Z,2.3
2023-09-18T14:49:07.341Z,2
2023-09-18T14:51:09.337Z,2.6
2023-09-18T14:53:11.323Z,2
2023-09-18T14:55:14.236Z,1.9
2023-09-18T14:59:22.149Z,1.3
2023-09-18T15:03:24.633Z,1.9
2023-09-18T15:05:26.618Z,8
2023-09-18T15:07:28.598Z,2.7
2023-09-18T15:09:30.630Z,2
2023-09-18T15:11:32.653Z,2
2023-09-18T15:13:34.651Z,3.8
2023-09-18T15:15:36.685Z,5.2
2023-09-18T15:17:41.902Z,9.9
2023-09-18T15:19:43.897Z,3.4
2023-09-18T15:21:45.945Z,1.9
2023-09-18T15:23:48.037Z,7.7
2023-09-18T15:25:49.946Z,2.2
2023-09-18T15:27:52.065Z,2.8
2023-09-18T15:29:54.068Z,2.5
2023-09-18T15:31:59.262Z,9.2
2023-09-18T15:34:01.404Z,2.2
2023-09-18T15:36:03.368Z,4.2
2023-09-18T15:38:31.860Z,24.6
2023-09-18T15:40:33.878Z,4.2
2023-09-18T15:48:45.231Z,0.8
2023-09-18T15:50:47.343Z,3.3
2023-09-18T15:52:49.339Z,2
2023-09-18T15:54:51.375Z,7.1
2023-09-18T15:58:58.643Z,1.2
2023-09-18T16:01:00.719Z,1.2
2023-09-18T16:03:02.955Z,0.4
2023-09-18T16:05:04.862Z,1.4
2023-09-18T16:07:06.933Z,2.7
2023-09-18T16:09:09.005Z,1
2023-09-18T16:11:11.083Z,0.9
2023-09-18T16:15:18.364Z,1.4
2023-09-18T16:25:28.738Z,4.7
2023-09-18T16:27:33.985Z,3.3
2023-09-18T16:32:40.983Z,1.1
2023-09-18T16:34:42.852Z,1.1
2023-09-18T16:36:44.917Z,3.6
2023-09-18T16:38:47.035Z,2.1
2023-09-18T16:42:54.252Z,1.8
2023-09-18T16:49:00.509Z,11.1
2023-09-18T16:51:02.610Z,3.9
2023-09-18T16:55:09.874Z,3.1
2023-09-18T16:57:11.932Z,1.9
2023-09-18T16:59:14.009Z,1.6
2023-09-18T17:01:16.120Z,1.8
2023-09-18T17:03:18.394Z,1.1
2023-09-18T17:05:20.233Z,3.7
2023-09-18T17:11:29.592Z,8
2023-09-18T17:13:31.678Z,1.4
2023-09-18T17:15:33.746Z,2.1
2023-09-18T17:17:35.859Z,2.2
2023-09-18T17:19:37.906Z,4.6
2023-09-18T17:21:39.978Z,2.2
2023-09-18T17:23:45.221Z,2.7
2023-09-18T17:25:47.269Z,2.2
2023-09-18T17:27:49.355Z,2.1
2023-09-18T17:39:05.541Z,5
2023-09-18T17:43:09.649Z,5.4
2023-09-18T17:45:11.691Z,4.4
2023-09-18T17:47:22.378Z,3.9
2023-09-18T17:49:15.875Z,10.9
2023-09-18T17:51:21.095Z,3.2
2023-09-18T17:53:23.184Z,3.3
2023-09-18T17:55:25.244Z,3.1
2023-09-18T17:57:27.318Z,3.8
2023-09-18T17:59:29.389Z,1.9
2023-09-18T18:01:31.569Z,2.3
2023-09-18T18:03:33.867Z,5.8
2023-09-18T18:05:39.059Z,4.7
2023-09-18T18:07:40.851Z,5.4
2023-09-18T18:09:42.868Z,2.2
2023-09-18T18:15:49.118Z,4.6
2023-09-18T18:17:51.231Z,3.4
2023-09-18T18:19:56.391Z,3.4
2023-09-18T18:24:00.554Z,6.1
2023-09-18T18:29:07.300Z,2.9
2023-09-18T18:33:14.703Z,3.6
2023-09-18T18:35:16.674Z,5.1
2023-09-18T18:37:18.754Z,2.7
2023-09-18T18:39:20.838Z,2.4
2023-09-18T18:41:22.898Z,4.1
2023-09-18T18:43:24.955Z,10
2023-09-18T18:45:27.180Z,4
2023-09-18T18:47:32.326Z,3.8
2023-09-18T18:49:34.346Z,3.4
2023-09-18T18:51:36.431Z,5
2023-09-18T18:53:38.670Z,4.6
2023-09-18T18:55:40.569Z,6.3
2023-09-18T18:57:42.636Z,6
2023-09-18T18:59:44.746Z,6.8
2023-09-18T19:01:55.147Z,15.9
2023-09-18T19:03:52.149Z,3.9
2023-09-18T19:05:54.091Z,4
2023-09-18T19:07:56.172Z,6.6
2023-09-18T19:09:59.893Z,10.1
2023-09-18T19:12:00.349Z,2.2
2023-09-18T19:14:02.379Z,4
2023-09-18T19:16:07.629Z,5.2
2023-09-18T19:18:09.707Z,9.2
2023-09-18T19:20:11.760Z,11.1
2023-09-18T19:22:40.423Z,5.5
2023-09-18T19:26:44.594Z,10.5
2023-09-18T19:32:54.050Z,6.5
2023-09-18T19:39:00.216Z,5.4
2023-09-18T19:41:02.250Z,3.2
2023-09-18T19:43:07.468Z,14.3
2023-09-18T19:45:09.642Z,3
2023-09-18T19:47:11.637Z,5.6
2023-09-18T19:49:13.705Z,5.5
2023-09-18T19:51:15.774Z,5.8
2023-09-18T19:53:17.838Z,8.8
2023-09-18T19:55:28.709Z,1.9
2023-09-18T19:57:25.150Z,2.9
2023-09-18T20:01:29.307Z,4.2
2023-09-18T20:03:31.530Z,7.5
2023-09-18T20:05:33.490Z,2
2023-09-18T20:07:35.497Z,10.3
2023-09-18T20:11:42.866Z,9.1
2023-09-18T20:13:44.898Z,5.8
2023-09-18T20:16:50.460Z,4
2023-09-18T20:18:51.646Z,3.8
2023-09-18T20:20:53.811Z,4.2
2023-09-18T20:22:57.371Z,1.6
2023-09-18T20:25:02.552Z,3.3
2023-09-18T20:27:04.658Z,5.5
2023-09-18T20:29:06.695Z,5.5
2023-09-18T20:43:24.375Z,17.3
2023-09-18T20:55:39.963Z,22.4
2023-09-18T20:59:45.715Z,6.5
2023-09-18T21:01:46.214Z,15.1
2023-09-18T21:03:48.577Z,4.4
2023-09-18T21:05:50.378Z,24
2023-09-18T21:07:55.573Z,15.8
2023-09-18T21:11:59.728Z,20.3
2023-09-18T21:13:02.345Z,15.4
2023-09-18T21:15:04.470Z,3.4
2023-09-18T21:17:06.479Z,2.7
2023-09-18T21:19:08.547Z,15.6
2023-09-18T21:21:17.213Z,15.6
2023-09-18T21:27:19.979Z,5.5
2023-09-18T21:31:24.156Z,20.1
2023-09-18T21:35:31.508Z,3.2
2023-09-18T21:43:39.687Z,5.5
2023-09-18T21:45:41.806Z,10.2
2023-09-18T21:47:43.914Z,6.4
2023-09-18T21:51:51.150Z,10.2
2023-09-18T21:53:53.239Z,7.5
2023-09-18T21:57:57.368Z,6.2
2023-09-18T22:04:07.201Z,7.3
2023-09-18T22:06:08.905Z,17.8
2023-09-18T22:08:10.845Z,12.5
2023-09-18T22:09:13.521Z,9.2
2023-09-18T22:13:17.622Z,10.9
2023-09-18T22:15:19.697Z,9.8
2023-09-18T22:17:24.894Z,7.2
2023-09-18T22:21:29.030Z,15.5
2023-09-18T22:25:33.177Z,14.6
2023-09-18T22:27:35.264Z,9.9
2023-09-18T22:35:46.687Z,8.2
2023-09-18T22:37:48.740Z,18.6
2023-09-18T22:41:52.938Z,5.9
2023-09-18T22:43:54.972Z,15.5
2023-09-18T22:46:00.177Z,13.1
2023-09-18T22:48:02.320Z,17.8
2023-09-18T22:50:04.334Z,13.8
2023-09-18T22:52:06.449Z,6.5
2023-09-18T22:54:08.454Z,11.6
2023-09-18T22:56:10.537Z,8.1
2023-09-18T22:58:12.666Z,7.8
2023-09-18T23:00:17.852Z,7.4
2023-09-18T23:02:19.973Z,7.1
2023-09-18T23:04:22.019Z,7.7
2023-09-18T23:13:00.142Z,10.8
2023-09-18T23:17:04.431Z,7.5
2023-09-18T23:25:12.701Z,6.5
2023-09-18T23:27:17.805Z,12.1
2023-09-18T23:29:19.859Z,7.4
2023-09-18T23:33:23.990Z,25.4
2023-09-18T23:35:26.079Z,9.6
2023-09-18T23:37:28.220Z,10
2023-09-18T23:41:52.143Z,14.5
2023-09-18T23:43:37.689Z,10.6
2023-09-18T23:45:39.611Z,14.7
